Time;durP1;ratioP1;P1;durP2;ratioP2;P2;SDS_P1;SDS_P2;PMS_P1;PMS_P2;Temp;Humidity;BMP_temperature;BMP_pressure;BME280_temperature;BME280_humidity;BME280_pressure;Samples;Min_cycle;Max_cycle;Signal;HPM_P1;HPM_P2
2024/01/01 00:02:16;;;;;;;14.87;8.33;;;9.30;99.90;;;;;;6279342;22;20172;-82
2024/01/01 00:04:42;;;;;;;21.63;7.70;;;9.30;99.90;;;;;;6253644;22;20177;-81
2024/01/01 00:07:07;;;;;;;22.53;12.70;;;9.30;99.90;;;;;;6278157;22;20399;-81
2024/01/01 00:09:33;;;;;;;22.87;12.50;;;9.20;99.90;;;;;;6281308;22;20152;-82
2024/01/01 00:11:58;;;;;;;13.20;6.70;;;9.20;99.90;;;;;;6279583;22;20722;-82
2024/01/01 00:14:24;;;;;;;12.73;4.93;;;9.10;99.90;;;;;;6280127;22;20682;-80
2024/01/01 00:16:49;;;;;;;17.83;6.30;;;9.20;99.90;;;;;;6281405;22;20671;-81
2024/01/01 00:19:15;;;;;;;7.30;4.30;;;9.20;99.90;;;;;;6280564;22;20542;-80
2024/01/01 00:21:40;;;;;;;12.23;4.50;;;9.30;99.90;;;;;;6281329;22;20145;-81
2024/01/01 00:24:06;;;;;;;12.00;3.73;;;9.30;99.90;;;;;;6251499;22;20177;-81
2024/01/01 00:26:31;;;;;;;12.43;4.17;;;9.30;99.90;;;;;;6279371;22;20148;-81
2024/01/01 00:28:57;;;;;;;17.00;4.20;;;9.40;99.90;;;;;;6279396;22;20153;-81
2024/01/01 00:31:22;;;;;;;7.30;3.80;;;9.30;99.90;;;;;;6280198;22;20156;-81
2024/01/01 00:33:48;;;;;;;14.57;3.40;;;9.40;99.90;;;;;;6278973;22;20509;-80
2024/01/01 00:36:13;;;;;;;7.60;3.23;;;9.40;99.90;;;;;;6280307;22;20149;-82
2024/01/01 00:38:39;;;;;;;9.80;3.30;;;9.40;99.90;;;;;;6279886;22;20540;-81
2024/01/01 00:41:04;;;;;;;8.60;3.37;;;9.40;99.90;;;;;;6252768;22;20159;-81
2024/01/01 00:43:32;;;;;;;14.40;3.80;;;9.50;99.00;;;;;;6280062;22;20196;-81
2024/01/01 00:45:58;;;;;;;12.73;3.07;;;9.50;75.60;;;;;;6279133;22;20153;-81
2024/01/01 00:48:23;;;;;;;8.10;3.63;;;9.50;25.50;;;;;;6251363;22;20389;-82
2024/01/01 00:50:48;;;;;;;10.50;2.90;;;9.50;29.10;;;;;;6279327;22;20537;-82
2024/01/01 00:53:15;;;;;;;7.70;3.40;;;9.50;22.80;;;;;;6279883;22;20176;-83
2024/01/01 00:55:41;;;;;;;6.20;2.53;;;9.50;19.50;;;;;;6278964;22;20214;-81
2024/01/01 00:58:06;;;;;;;13.73;3.53;;;9.50;9.90;;;;;;6250846;22;20419;-81
2024/01/01 01:00:32;;;;;;;7.33;2.40;;;9.50;7.50;;;;;;6277327;22;20145;-82
2024/01/01 01:02:57;;;;;;;10.00;2.80;;;9.50;1.90;;;;;;6278624;22;20517;-80
2024/01/01 01:05:24;;;;;;;7.63;3.03;;;9.50;1.60;;;;;;6278728;22;20152;-82
2024/01/01 01:07:49;;;;;;;6.93;2.90;;;9.50;7.70;;;;;;6278684;22;20153;-82
2024/01/01 01:10:15;;;;;;;10.17;2.23;;;9.50;6.20;;;;;;6255365;22;20398;-83
2024/01/01 01:12:41;;;;;;;7.47;3.20;;;9.50;1.00;;;;;;6282469;22;20156;-83
2024/01/01 01:15:06;;;;;;;10.83;2.90;;;9.50;1.00;;;;;;6281416;22;20232;-82
2024/01/01 01:17:32;;;;;;;12.20;2.40;;;9.50;1.00;;;;;;6281196;22;20937;-83
2024/01/01 01:19:58;;;;;;;12.00;2.57;;;9.50;1.00;;;;;;6282756;22;20145;-84
2024/01/01 01:22:23;;;;;;;13.37;2.73;;;9.50;10.30;;;;;;6281616;22;20153;-84
2024/01/01 01:24:49;;;;;;;12.33;2.10;;;9.50;96.80;;;;;;6280063;22;20769;-84
2024/01/01 01:27:14;;;;;;;6.13;2.03;;;9.40;99.90;;;;;;6281252;22;20149;-82
2024/01/01 01:29:40;;;;;;;8.77;2.90;;;9.40;1.00;;;;;;6281443;22;20202;-84
2024/01/01 01:32:07;;;;;;;7.03;2.40;;;9.30;1.00;;;;;;6255152;22;20163;-83
2024/01/01 01:34:33;;;;;;;7.63;2.30;;;9.20;99.90;;;;;;6280148;22;20399;-82
2024/01/01 01:36:59;;;;;;;13.70;3.00;;;9.20;99.90;;;;;;6253050;22;20396;-82
2024/01/01 01:39:25;;;;;;;15.27;2.70;;;9.10;99.90;;;;;;6279710;22;20204;-83
2024/01/01 01:41:50;;;;;;;8.40;2.53;;;9.00;1.00;;;;;;6278506;22;20382;-83
2024/01/01 01:44:16;;;;;;;8.30;2.40;;;9.00;1.00;;;;;;6253441;22;20179;-83
2024/01/01 01:46:41;;;;;;;13.67;2.70;;;8.90;99.90;;;;;;6281632;22;20145;-84
2024/01/01 01:49:07;;;;;;;10.37;2.70;;;8.80;1.00;;;;;;6281661;22;20231;-83
2024/01/01 01:51:33;;;;;;;9.00;2.60;;;8.70;1.00;;;;;;6254282;22;20206;-82
2024/01/01 01:53:59;;;;;;;11.57;2.03;;;8.60;1.00;;;;;;6278021;22;20934;-82
2024/01/01 01:56:26;;;;;;;5.80;2.60;;;8.50;36.90;;;;;;6275809;22;20198;-83
2024/01/01 01:58:52;;;;;;;9.63;2.80;;;8.30;99.90;;;;;;6274591;22;20419;-84
2024/01/01 02:01:18;;;;;;;6.50;2.90;;;8.30;99.90;;;;;;6275904;22;20689;-84
2024/01/01 02:03:44;;;;;;;10.93;3.10;;;8.20;99.90;;;;;;6275172;22;20173;-86
2024/01/01 02:06:11;;;;;;;26.37;3.60;;;8.20;1.00;;;;;;6275357;22;20145;-86
2024/01/01 02:08:37;;;;;;;12.17;2.60;;;8.10;1.00;;;;;;6274560;22;20375;-85
2024/01/01 02:11:02;;;;;;;16.00;3.20;;;8.10;1.00;;;;;;6274594;22;20383;-85
2024/01/01 02:13:30;;;;;;;11.17;3.03;;;8.10;1.00;;;;;;6274041;22;20430;-86
2024/01/01 02:15:56;;;;;;;13.40;3.50;;;8.00;1.00;;;;;;6246633;22;20149;-86
2024/01/01 02:18:22;;;;;;;12.03;2.70;;;8.00;1.00;;;;;;6274651;22;20492;-86
2024/01/01 02:20:48;;;;;;;15.77;3.27;;;8.00;1.00;;;;;;6275054;22;20867;-86
2024/01/01 02:23:18;;;;;;;15.73;2.57;;;8.00;1.00;;;;;;6246587;22;20448;-86
2024/01/01 02:25:44;;;;;;;8.80;2.90;;;8.00;1.00;;;;;;6274621;22;20145;-85
2024/01/01 02:28:10;;;;;;;10.90;2.80;;;7.90;1.00;;;;;;6273003;22;20383;-85
2024/01/01 02:30:36;;;;;;;9.07;2.87;;;7.90;1.00;;;;;;6273863;22;20375;-86
2024/01/01 02:33:14;;;;;;;13.77;3.77;;;7.90;1.00;;;;;;6272130;22;20379;-85
2024/01/01 02:35:40;;;;;;;10.27;2.70;;;7.90;1.00;;;;;;6273181;22;20385;-86
2024/01/01 02:38:07;;;;;;;12.63;3.47;;;7.90;1.00;;;;;;6271032;22;20517;-86
2024/01/01 02:40:34;;;;;;;13.30;2.95;;;7.90;1.00;;;;;;6276943;22;20382;-86
2024/01/01 02:43:01;;;;;;;15.67;3.97;;;7.90;1.00;;;;;;6274238;22;20152;-85
2024/01/01 02:45:28;;;;;;;10.57;3.53;;;7.90;1.00;;;;;;6274084;22;20839;-85
2024/01/01 02:47:54;;;;;;;14.83;3.80;;;7.90;1.00;;;;;;6246856;22;20379;-86
2024/01/01 02:50:20;;;;;;;16.23;2.80;;;8.00;1.00;;;;;;6275438;22;20376;-86
2024/01/01 02:52:46;;;;;;;14.30;2.23;;;7.90;1.00;;;;;;6274213;22;20156;-86
2024/01/01 02:55:12;;;;;;;14.00;2.63;;;8.00;1.00;;;;;;6274672;22;20853;-86
2024/01/01 02:57:37;;;;;;;18.47;4.03;;;8.00;1.00;;;;;;6246156;22;20411;-86
2024/01/01 03:00:04;;;;;;;15.30;3.17;;;8.00;1.00;;;;;;6274713;22;20750;-86
2024/01/01 03:02:29;;;;;;;17.70;2.63;;;8.00;1.00;;;;;;6273690;22;20591;-85
2024/01/01 03:04:55;;;;;;;11.80;3.60;;;8.00;1.00;;;;;;6274596;22;20457;-86
2024/01/01 03:07:21;;;;;;;17.60;3.00;;;8.00;1.00;;;;;;6273152;22;20156;-85
2024/01/01 03:09:49;;;;;;;14.90;2.20;;;8.00;1.00;;;;;;6275310;22;20371;-86
2024/01/01 03:12:16;;;;;;;13.93;3.00;;;8.00;1.00;;;;;;6248317;22;20478;-86
2024/01/01 03:14:43;;;;;;;13.53;3.07;;;8.00;1.00;;;;;;6273285;22;20238;-85
2024/01/01 03:17:08;;;;;;;16.37;2.60;;;8.00;1.00;;;;;;6274117;22;20287;-86
2024/01/01 03:19:34;;;;;;;11.03;3.07;;;8.00;1.00;;;;;;6273270;22;20419;-86
2024/01/01 03:21:59;;;;;;;11.80;2.70;;;8.00;1.00;;;;;;6273842;22;20160;-87
2024/01/01 03:24:25;;;;;;;11.23;3.43;;;8.00;1.00;;;;;;6246445;22;20633;-86
2024/01/01 03:26:51;;;;;;;11.17;2.90;;;8.00;1.00;;;;;;6273826;22;20153;-85
2024/01/01 03:29:16;;;;;;;19.63;4.13;;;8.00;1.00;;;;;;6273530;22;20403;-85
2024/01/01 03:31:45;;;;;;;15.97;3.40;;;8.00;1.00;;;;;;6272787;22;20643;-86
2024/01/01 03:34:10;;;;;;;17.53;3.53;;;8.10;1.00;;;;;;6273794;22;20624;-84
2024/01/01 03:36:36;;;;;;;10.27;3.40;;;8.10;99.90;;;;;;6273011;22;20371;-85
2024/01/01 03:39:02;;;;;;;15.93;2.63;;;8.10;99.90;;;;;;6272894;22;20184;-86
2024/01/01 03:41:27;;;;;;;18.70;3.40;;;8.20;99.90;;;;;;6274209;22;20155;-85
2024/01/01 03:43:53;;;;;;;19.83;2.80;;;8.20;99.90;;;;;;6246541;22;20173;-85
2024/01/01 03:46:18;;;;;;;11.60;2.47;;;8.20;99.90;;;;;;6273407;22;20153;-85
2024/01/01 03:48:44;;;;;;;13.70;3.23;;;8.20;99.90;;;;;;6273732;22;20157;-84
2024/01/01 03:51:10;;;;;;;15.40;3.27;;;8.20;99.90;;;;;;6273932;22;20160;-85
2024/01/01 03:53:35;;;;;;;9.90;2.53;;;8.20;28.80;;;;;;6274634;22;20173;-85
2024/01/01 03:56:01;;;;;;;13.43;3.10;;;8.20;1.00;;;;;;6275056;22;20391;-85
2024/01/01 03:58:26;;;;;;;12.00;3.20;;;8.30;1.00;;;;;;6275800;22;20641;-86
2024/01/01 04:00:52;;;;;;;14.07;3.20;;;8.30;99.90;;;;;;6275231;22;20502;-83
2024/01/01 04:03:17;;;;;;;25.67;3.50;;;8.30;99.90;;;;;;6276013;22;20218;-84
2024/01/01 04:05:43;;;;;;;16.20;2.53;;;8.30;99.90;;;;;;6276223;22;20195;-86
2024/01/01 04:08:08;;;;;;;10.03;2.80;;;8.30;7.30;;;;;;6249174;22;20157;-84
2024/01/01 04:10:34;;;;;;;10.00;2.93;;;8.30;99.90;;;;;;6275769;22;20164;-82
2024/01/01 04:12:59;;;;;;;16.17;2.43;;;8.30;1.00;;;;;;6281499;22;20533;-85
2024/01/01 04:15:25;;;;;;;21.47;3.47;;;8.30;1.00;;;;;;6253958;22;20153;-85
2024/01/01 04:17:50;;;;;;;10.37;2.80;;;8.40;99.90;;;;;;6281690;22;20187;-85
2024/01/01 04:20:16;;;;;;;10.30;3.17;;;8.40;99.90;;;;;;6280597;22;20171;-85
2024/01/01 04:22:41;;;;;;;12.10;2.33;;;8.40;99.90;;;;;;6282172;22;20593;-84
2024/01/01 04:25:07;;;;;;;25.27;3.67;;;8.40;99.90;;;;;;6282110;22;20567;-84
2024/01/01 04:27:33;;;;;;;12.97;2.70;;;8.40;21.70;;;;;;6283571;22;20195;-85
2024/01/01 04:29:59;;;;;;;8.73;2.73;;;8.40;99.90;;;;;;6286117;22;20172;-84
2024/01/01 04:32:24;;;;;;;18.43;3.67;;;8.40;99.90;;;;;;6284603;22;20391;-85
2024/01/01 04:34:50;;;;;;;10.40;2.57;;;8.40;1.00;;;;;;6284453;22;20222;-85
2024/01/01 04:37:16;;;;;;;9.30;2.70;;;8.30;99.90;;;;;;6284673;22;20148;-84
2024/01/01 04:39:42;;;;;;;13.03;2.63;;;8.30;99.90;;;;;;6284414;22;20449;-84
2024/01/01 04:42:07;;;;;;;14.73;2.93;;;8.30;99.90;;;;;;6283500;22;20145;-85
2024/01/01 04:44:33;;;;;;;11.40;2.33;;;8.30;99.90;;;;;;6281596;22;20247;-86
2024/01/01 04:47:00;;;;;;;13.17;2.73;;;8.20;99.90;;;;;;6282872;22;20156;-83
2024/01/01 04:49:26;;;;;;;8.90;2.20;;;8.20;99.90;;;;;;6253942;22;20176;-84
2024/01/01 04:51:51;;;;;;;15.33;2.50;;;8.20;99.90;;;;;;6282475;22;20382;-84
2024/01/01 04:54:18;;;;;;;14.43;3.07;;;8.30;99.90;;;;;;6280125;22;20493;-83
2024/01/01 04:56:43;;;;;;;10.60;3.07;;;8.30;1.00;;;;;;6280186;22;20159;-83
2024/01/01 04:59:09;;;;;;;12.97;3.73;;;8.30;1.00;;;;;;6248067;22;20426;-84
2024/01/01 05:01:34;;;;;;;10.47;2.37;;;8.40;1.00;;;;;;6275539;22;20153;-83
2024/01/01 05:04:00;;;;;;;13.83;3.30;;;8.40;1.00;;;;;;6273894;22;20556;-84
2024/01/01 05:06:25;;;;;;;10.13;2.87;;;8.40;99.90;;;;;;6275689;22;20149;-83
2024/01/01 05:08:51;;;;;;;9.47;2.70;;;8.40;1.00;;;;;;6273015;22;20164;-83
2024/01/01 05:11:16;;;;;;;14.37;2.50;;;8.40;1.00;;;;;;6275577;22;20149;-84
2024/01/01 05:13:42;;;;;;;11.60;3.33;;;8.40;99.90;;;;;;6275976;22;20568;-84
2024/01/01 05:16:10;;;;;;;10.30;2.63;;;8.40;99.90;;;;;;6277062;22;20149;-83
2024/01/01 05:18:36;;;;;;;12.83;3.13;;;8.40;99.90;;;;;;6251538;22;20244;-84
2024/01/01 05:21:01;;;;;;;11.17;2.60;;;8.40;99.90;;;;;;6276678;22;20866;-83
2024/01/01 05:23:27;;;;;;;23.10;3.53;;;8.40;99.90;;;;;;6275787;22;20207;-83
2024/01/01 05:25:52;;;;;;;7.03;2.70;;;8.40;99.90;;;;;;6274829;22;20149;-83
2024/01/01 05:28:18;;;;;;;10.47;2.33;;;8.50;99.90;;;;;;6275738;22;20475;-83
2024/01/01 05:30:44;;;;;;;15.33;3.20;;;8.50;99.90;;;;;;6248562;22;20196;-83
2024/01/01 05:33:09;;;;;;;13.70;3.07;;;8.50;67.00;;;;;;6275053;22;20574;-83
2024/01/01 05:35:36;;;;;;;10.33;2.80;;;8.50;99.90;;;;;;6274707;22;20176;-83
2024/01/01 05:38:02;;;;;;;14.57;3.40;;;8.50;1.00;;;;;;6276468;22;20176;-83
2024/01/01 05:40:28;;;;;;;22.17;3.00;;;8.50;1.00;;;;;;6274717;22;20454;-82
2024/01/01 05:42:53;;;;;;;9.23;2.60;;;8.50;1.00;;;;;;6278138;22;20379;-82
2024/01/01 05:45:19;;;;;;;18.17;2.60;;;8.50;1.00;;;;;;6254510;22;20157;-84
2024/01/01 05:47:44;;;;;;;17.13;4.33;;;8.50;1.00;;;;;;6282323;22;20145;-84
2024/01/01 05:50:10;;;;;;;18.73;3.40;;;8.50;1.00;;;;;;6282912;22;20231;-84
2024/01/01 05:52:35;;;;;;;6.43;2.13;;;8.50;1.00;;;;;;6252892;22;20269;-85
2024/01/01 05:55:01;;;;;;;8.83;2.43;;;8.50;1.00;;;;;;6282174;22;20169;-82
2024/01/01 05:57:26;;;;;;;13.33;3.10;;;8.50;1.00;;;;;;6282078;22;20250;-85
2024/01/01 05:59:52;;;;;;;18.33;3.53;;;8.50;1.00;;;;;;6253749;22;20180;-84
2024/01/01 06:02:17;;;;;;;9.87;3.63;;;8.50;9.50;;;;;;6254607;22;20152;-84
2024/01/01 06:04:43;;;;;;;13.03;2.10;;;8.50;99.90;;;;;;6281405;22;20175;-85
2024/01/01 06:07:08;;;;;;;10.37;2.80;;;8.50;99.90;;;;;;6280223;22;20149;-83
2024/01/01 06:09:34;;;;;;;9.43;2.67;;;8.50;99.90;;;;;;6278725;22;20171;-84
2024/01/01 06:12:00;;;;;;;18.10;2.60;;;8.40;99.90;;;;;;6253068;22;20166;-85
2024/01/01 06:14:26;;;;;;;15.97;2.40;;;8.40;99.90;;;;;;6278818;22;21109;-84
2024/01/01 06:16:52;;;;;;;10.13;2.93;;;8.40;1.00;;;;;;6281021;22;20410;-85
2024/01/01 06:19:17;;;;;;;11.20;2.60;;;8.30;99.90;;;;;;6280225;22;20220;-84
2024/01/01 06:21:42;;;;;;;17.23;3.00;;;8.30;1.00;;;;;;6280435;22;20149;-85
2024/01/01 06:24:08;;;;;;;14.63;3.00;;;8.20;31.90;;;;;;6280100;22;20173;-85
2024/01/01 06:26:33;;;;;;;9.40;2.43;;;8.20;1.00;;;;;;6279441;22;20525;-84
2024/01/01 06:28:59;;;;;;;20.03;4.03;;;8.20;99.90;;;;;;6277824;22;20207;-84
2024/01/01 06:31:24;;;;;;;11.20;2.93;;;8.20;27.70;;;;;;6274192;22;20252;-83
2024/01/01 06:33:50;;;;;;;8.50;3.30;;;8.20;1.00;;;;;;6274828;22;20169;-84
2024/01/01 06:36:15;;;;;;;9.67;2.60;;;8.20;1.00;;;;;;6275545;22;20153;-84
2024/01/01 06:38:41;;;;;;;11.73;2.90;;;8.20;99.90;;;;;;6275365;22;20238;-84
2024/01/01 06:41:07;;;;;;;17.40;2.80;;;8.20;99.90;;;;;;6274889;22;20585;-84
2024/01/01 06:43:33;;;;;;;11.70;2.23;;;8.20;99.90;;;;;;6274802;22;20164;-84
2024/01/01 06:45:59;;;;;;;12.13;2.50;;;8.20;99.90;;;;;;6274775;22;21285;-84
2024/01/01 06:48:25;;;;;;;6.87;2.03;;;8.10;99.90;;;;;;6277850;22;20402;-84
2024/01/01 06:50:51;;;;;;;11.57;3.13;;;8.10;1.00;;;;;;6274887;22;20152;-84
2024/01/01 06:53:16;;;;;;;15.40;3.07;;;8.10;1.00;;;;;;6274652;22;20168;-83
2024/01/01 06:55:42;;;;;;;9.93;2.87;;;8.10;15.70;;;;;;6275535;22;20440;-83
2024/01/01 06:58:07;;;;;;;15.57;2.53;;;8.10;99.90;;;;;;6275198;22;20185;-85
2024/01/01 07:00:33;;;;;;;10.67;2.00;;;8.00;1.00;;;;;;6275314;22;20156;-84
2024/01/01 07:02:59;;;;;;;7.00;2.07;;;8.00;1.00;;;;;;6274602;22;20607;-85
2024/01/01 07:05:26;;;;;;;8.83;2.03;;;8.00;1.00;;;;;;6275564;22;20145;-84
2024/01/01 07:07:51;;;;;;;9.00;2.00;;;8.00;1.00;;;;;;6274842;22;20171;-84
2024/01/01 07:10:17;;;;;;;9.90;2.40;;;8.00;1.00;;;;;;6274509;22;20372;-84
2024/01/01 07:12:43;;;;;;;6.23;2.50;;;8.00;1.00;;;;;;6274480;22;20171;-84
2024/01/01 07:15:08;;;;;;;6.80;2.70;;;8.00;1.00;;;;;;6275628;22;20190;-85
2024/01/01 07:17:34;;;;;;;7.73;1.93;;;8.00;99.90;;;;;;6280583;22;20216;-84
2024/01/01 07:20:00;;;;;;;4.47;1.37;;;8.00;99.90;;;;;;6281813;22;20180;-85
2024/01/01 07:22:26;;;;;;;7.10;2.23;;;8.00;1.00;;;;;;6282134;22;20505;-85
2024/01/01 07:24:51;;;;;;;8.20;2.37;;;8.00;1.00;;;;;;6280881;22;20396;-85
2024/01/01 07:27:17;;;;;;;8.50;1.53;;;8.00;99.90;;;;;;6281065;22;20658;-85
2024/01/01 07:29:42;;;;;;;8.73;1.90;;;8.00;99.90;;;;;;6283187;22;20208;-84
2024/01/01 07:32:08;;;;;;;8.60;1.70;;;8.00;99.90;;;;;;6283040;22;20196;-86
2024/01/01 07:34:33;;;;;;;14.47;1.77;;;8.00;1.00;;;;;;6284218;22;20169;-84
2024/01/01 07:37:00;;;;;;;3.00;1.50;;;8.00;1.00;;;;;;6284002;22;20164;-84
2024/01/01 07:39:29;;;;;;;6.30;1.90;;;8.10;1.00;;;;;;6282264;22;20235;-85
2024/01/01 07:41:55;;;;;;;5.63;2.13;;;8.10;1.00;;;;;;6281605;22;20387;-85
2024/01/01 07:44:21;;;;;;;5.47;1.60;;;8.10;1.00;;;;;;6282900;22;20421;-84
2024/01/01 07:46:47;;;;;;;5.30;1.70;;;8.10;1.00;;;;;;6277204;22;20673;-84
2024/01/01 07:49:13;;;;;;;4.53;1.13;;;8.10;1.00;;;;;;6283160;22;20155;-84
2024/01/01 07:51:39;;;;;;;4.93;1.40;;;8.10;1.00;;;;;;6281017;22;20387;-83
2024/01/01 07:54:04;;;;;;;10.80;1.97;;;8.10;1.00;;;;;;6282239;22;20647;-85
2024/01/01 07:56:30;;;;;;;4.53;1.37;;;8.10;99.90;;;;;;6282246;22;20168;-85
2024/01/01 07:58:55;;;;;;;3.60;1.27;;;8.00;1.00;;;;;;6283262;22;20553;-85
2024/01/01 08:01:21;;;;;;;6.00;2.20;;;8.00;1.00;;;;;;6277889;22;20507;-83
2024/01/01 08:03:47;;;;;;;7.33;1.43;;;8.00;1.00;;;;;;6278149;22;20191;-83
2024/01/01 08:06:13;;;;;;;3.97;1.30;;;8.00;99.90;;;;;;6275846;22;20153;-83
2024/01/01 08:08:39;;;;;;;4.90;1.63;;;8.00;1.00;;;;;;6275492;22;20754;-83
2024/01/01 08:11:05;;;;;;;11.13;2.30;;;8.00;99.90;;;;;;6277425;22;20429;-84
2024/01/01 08:13:31;;;;;;;3.03;1.33;;;8.00;99.90;;;;;;6276182;22;20423;-83
2024/01/01 08:15:56;;;;;;;5.60;2.33;;;8.00;99.90;;;;;;6276367;22;20382;-82
2024/01/01 08:18:22;;;;;;;8.13;1.87;;;8.00;99.90;;;;;;6275759;22;20177;-83
2024/01/01 08:20:47;;;;;;;6.77;1.63;;;8.00;99.90;;;;;;6274599;22;20156;-84
2024/01/01 08:23:12;;;;;;;7.40;1.70;;;8.10;99.90;;;;;;6276866;22;20200;-84
2024/01/01 08:25:39;;;;;;;4.90;2.27;;;8.10;1.00;;;;;;6275443;22;20149;-82
2024/01/01 08:28:05;;;;;;;4.20;1.50;;;8.10;68.40;;;;;;6248962;22;20670;-84
2024/01/01 08:30:31;;;;;;;5.73;1.60;;;8.10;99.90;;;;;;6249988;22;20388;-83
2024/01/01 08:32:56;;;;;;;6.23;1.70;;;8.20;94.00;;;;;;6274239;22;20415;-84
2024/01/01 08:35:22;;;;;;;5.97;1.43;;;8.10;1.00;;;;;;6274989;22;20395;-83
2024/01/01 08:37:48;;;;;;;3.83;1.50;;;8.20;99.90;;;;;;6274954;22;20153;-84
2024/01/01 08:40:14;;;;;;;4.83;1.40;;;8.30;99.90;;;;;;6275231;22;20473;-84
2024/01/01 08:42:39;;;;;;;6.07;1.50;;;8.40;99.90;;;;;;6247927;22;20390;-83
2024/01/01 08:45:06;;;;;;;3.40;1.80;;;8.50;1.00;;;;;;6275592;22;20471;-84
2024/01/01 08:47:31;;;;;;;4.63;1.40;;;8.60;99.90;;;;;;6281078;22;20157;-85
2024/01/01 08:49:57;;;;;;;6.07;1.70;;;8.70;99.90;;;;;;6254938;22;20399;-84
2024/01/01 08:52:22;;;;;;;4.90;1.70;;;8.70;9.30;;;;;;6282557;22;20155;-85
2024/01/01 08:54:48;;;;;;;9.43;2.00;;;8.70;1.00;;;;;;6254808;22;20176;-85
2024/01/01 08:57:14;;;;;;;4.83;1.20;;;8.70;1.00;;;;;;6280358;22;20157;-84
2024/01/01 08:59:40;;;;;;;4.43;2.23;;;8.70;1.00;;;;;;6282217;22;20418;-84
2024/01/01 09:02:06;;;;;;;4.63;1.37;;;8.70;1.00;;;;;;6254068;22;20459;-85
2024/01/01 09:04:32;;;;;;;6.17;2.90;;;8.70;1.00;;;;;;6282952;22;20172;-83
2024/01/01 09:07:00;;;;;;;7.87;1.83;;;8.80;1.00;;;;;;6282809;22;20395;-83
2024/01/01 09:09:29;;;;;;;4.83;1.80;;;8.80;82.80;;;;;;6280778;22;20392;-85
2024/01/01 09:11:55;;;;;;;3.90;1.40;;;8.80;99.90;;;;;;6252157;22;20409;-84
2024/01/01 09:14:21;;;;;;;5.33;1.70;;;8.70;99.90;;;;;;6281146;22;20411;-84
2024/01/01 09:16:47;;;;;;;10.00;1.87;;;8.70;1.00;;;;;;6280116;22;20696;-84
2024/01/01 09:19:14;;;;;;;3.20;1.27;;;8.60;99.90;;;;;;6281805;22;20188;-84
2024/01/01 09:21:40;;;;;;;3.40;1.73;;;8.70;1.00;;;;;;6255100;22;20390;-83
2024/01/01 09:24:08;;;;;;;2.83;1.50;;;8.70;99.90;;;;;;6282266;22;20423;-84
2024/01/01 09:26:35;;;;;;;6.50;2.20;;;8.70;1.00;;;;;;6282318;22;20148;-84
2024/01/01 09:29:00;;;;;;;6.07;1.43;;;8.70;1.00;;;;;;6278285;22;20726;-83
2024/01/01 09:31:26;;;;;;;5.90;1.30;;;8.70;1.00;;;;;;6280594;22;20380;-83
2024/01/01 09:33:53;;;;;;;8.20;1.63;;;8.70;1.00;;;;;;6274607;22;20218;-83
2024/01/01 09:36:18;;;;;;;9.97;2.57;;;8.70;1.00;;;;;;6276648;22;20860;-84
2024/01/01 09:38:44;;;;;;;4.57;1.70;;;8.70;1.00;;;;;;6275941;22;20423;-83
2024/01/01 09:41:13;;;;;;;7.83;1.87;;;8.70;99.90;;;;;;6276109;22;20145;-82
2024/01/01 09:43:44;;;;;;;7.83;1.70;;;8.80;99.90;;;;;;6274532;22;20175;-83
2024/01/01 09:46:10;;;;;;;5.57;2.30;;;8.90;99.90;;;;;;6276356;22;20356;-84
2024/01/01 09:48:36;;;;;;;4.17;1.37;;;9.00;48.00;;;;;;6275623;22;20719;-83
2024/01/01 09:51:03;;;;;;;6.30;1.73;;;9.10;1.00;;;;;;6273959;22;20407;-84
2024/01/01 09:53:30;;;;;;;6.07;1.50;;;9.20;99.90;;;;;;6248003;22;20177;-84
2024/01/01 09:55:55;;;;;;;6.10;1.67;;;9.40;1.00;;;;;;6276947;22;20376;-84
2024/01/01 09:58:21;;;;;;;5.33;1.30;;;9.40;1.00;;;;;;6278119;22;20415;-84
2024/01/01 10:00:48;;;;;;;2.07;1.50;;;9.50;99.90;;;;;;6247716;22;20175;-84
2024/01/01 10:03:14;;;;;;;9.13;2.30;;;9.40;99.90;;;;;;6276186;22;20210;-84
2024/01/01 10:05:40;;;;;;;8.20;2.00;;;9.30;99.90;;;;;;6249419;22;20384;-84
2024/01/01 10:08:13;;;;;;;6.53;2.00;;;9.20;1.00;;;;;;6248082;22;20801;-84
2024/01/01 10:10:39;;;;;;;5.83;1.87;;;9.10;1.00;;;;;;6275083;22;20379;-83
2024/01/01 10:13:08;;;;;;;5.23;2.00;;;9.00;99.90;;;;;;6275741;22;20721;-84
2024/01/01 10:15:39;;;;;;;21.80;4.03;;;9.00;99.90;;;;;;6275383;22;20440;-84
2024/01/01 10:18:16;;;;;;;10.77;2.20;;;9.00;1.00;;;;;;6276978;22;20823;-85
2024/01/01 10:20:45;;;;;;;4.73;2.27;;;9.00;1.00;;;;;;6279651;22;20897;-85
2024/01/01 10:23:19;;;;;;;7.30;2.63;;;9.10;1.00;;;;;;6277443;22;20843;-85
2024/01/01 10:25:45;;;;;;;6.03;2.00;;;9.20;29.30;;;;;;6276861;22;20376;-84
2024/01/01 10:28:15;;;;;;;8.80;1.60;;;9.50;1.00;;;;;;6270159;22;20395;-84
2024/01/01 10:30:46;;;;;;;7.17;2.80;;;9.80;99.90;;;;;;6279009;22;20230;-85
2024/01/01 10:33:15;;;;;;;5.57;1.53;;;10.00;1.00;;;;;;6278302;22;20358;-84
2024/01/01 10:35:42;;;;;;;8.60;1.80;;;10.10;1.00;;;;;;6278511;22;20462;-85
2024/01/01 10:38:08;;;;;;;7.43;2.83;;;10.10;1.00;;;;;;6277001;22;20427;-85
2024/01/01 10:40:33;;;;;;;11.63;2.33;;;10.10;1.00;;;;;;6276426;22;20843;-85
2024/01/01 10:43:00;;;;;;;10.07;2.00;;;10.00;1.00;;;;;;6277052;22;20376;-85
2024/01/01 10:45:26;;;;;;;5.10;2.13;;;9.90;1.00;;;;;;6276119;22;20153;-85
2024/01/01 10:47:54;;;;;;;7.57;1.73;;;9.70;1.00;;;;;;6275148;22;20402;-84
2024/01/01 10:50:31;;;;;;;4.83;1.60;;;9.60;1.00;;;;;;6277558;22;20198;-85
2024/01/01 10:53:20;;;;;;;5.63;1.43;;;9.50;1.00;;;;;;6276573;22;20368;-85
2024/01/01 10:55:56;;;;;;;7.67;1.47;;;9.60;1.00;;;;;;6280155;22;20362;-86
2024/01/01 10:59:18;;;;;;;4.77;1.30;;;9.50;1.00;;;;;;6280447;22;20418;-85
2024/01/01 11:01:45;;;;;;;6.70;1.30;;;9.40;99.90;;;;;;6187503;23;20473;-85
2024/01/01 11:04:12;;;;;;;3.60;1.60;;;9.30;1.00;;;;;;6191484;23;20374;-84
2024/01/01 11:06:43;;;;;;;4.13;1.47;;;9.20;99.90;;;;;;6235786;22;20978;-85
2024/01/01 11:09:21;;;;;;;10.77;2.13;;;9.30;99.90;;;;;;6282441;22;20404;-89
2024/01/01 11:11:50;;;;;;;8.07;2.50;;;9.30;59.10;;;;;;6296263;22;20471;-87
2024/01/01 11:14:25;;;;;;;4.37;1.57;;;9.40;1.00;;;;;;6298806;22;20721;-86
2024/01/01 11:16:53;;;;;;;4.30;1.67;;;9.40;1.00;;;;;;6296548;22;20417;-87
2024/01/01 11:19:46;;;;;;;12.53;1.97;;;9.30;1.00;;;;;;6296910;22;20498;-85
2024/01/01 11:22:18;;;;;;;4.53;1.40;;;9.40;1.00;;;;;;6295678;22;20431;-86
2024/01/01 11:24:45;;;;;;;7.80;2.70;;;9.50;1.00;;;;;;6288485;22;20384;-86
2024/01/01 11:27:24;;;;;;;11.53;2.10;;;9.50;99.90;;;;;;6290562;22;20918;-86
2024/01/01 11:29:50;;;;;;;9.03;1.97;;;9.40;99.90;;;;;;6288615;22;20869;-86
2024/01/01 11:32:18;;;;;;;7.40;2.67;;;9.40;99.90;;;;;;6289502;22;20384;-87
2024/01/01 11:34:43;;;;;;;5.47;1.70;;;9.50;99.90;;;;;;6288327;22;20718;-87
2024/01/01 11:37:09;;;;;;;6.10;1.97;;;9.60;99.90;;;;;;6287441;22;20391;-87
2024/01/01 11:39:35;;;;;;;7.23;1.70;;;9.60;99.90;;;;;;6289760;22;20184;-87
2024/01/01 11:42:01;;;;;;;7.90;1.80;;;9.70;99.90;;;;;;6288749;22;20152;-87
2024/01/01 11:44:26;;;;;;;4.57;2.00;;;9.70;23.80;;;;;;6289378;22;20402;-85
2024/01/01 11:46:54;;;;;;;8.97;1.90;;;9.70;3.90;;;;;;6287835;22;20152;-86
2024/01/01 11:49:20;;;;;;;8.77;2.90;;;9.60;35.00;;;;;;6284420;22;20184;-88
2024/01/01 11:51:54;;;;;;;6.93;2.00;;;9.60;99.90;;;;;;6289230;22;20375;-85
2024/01/01 11:54:20;;;;;;;14.67;3.30;;;9.60;40.20;;;;;;6288037;22;20153;-86
2024/01/01 11:56:46;;;;;;;8.53;2.30;;;9.60;1.00;;;;;;6286582;22;20409;-85
2024/01/01 11:59:13;;;;;;;8.30;1.73;;;9.60;1.00;;;;;;6284011;22;20431;-86
2024/01/01 12:01:40;;;;;;;8.27;2.33;;;9.60;1.00;;;;;;6284945;22;20395;-86
2024/01/01 12:04:09;;;;;;;8.27;2.60;;;9.70;21.30;;;;;;6286622;22;20720;-86
2024/01/01 12:06:35;;;;;;;10.30;2.30;;;9.80;1.00;;;;;;6286427;22;20372;-85
2024/01/01 12:09:06;;;;;;;9.40;3.00;;;9.90;1.00;;;;;;6286957;22;20399;-85
2024/01/01 12:11:32;;;;;;;12.77;2.40;;;9.90;1.00;;;;;;6287926;22;20429;-87
2024/01/01 12:13:57;;;;;;;7.43;2.17;;;9.90;1.00;;;;;;6282429;22;20380;-87
2024/01/01 12:16:23;;;;;;;9.20;2.97;;;9.80;1.00;;;;;;6287022;22;20410;-85
2024/01/01 12:19:04;;;;;;;14.93;3.70;;;9.80;1.00;;;;;;6281548;22;20728;-85
2024/01/01 12:21:43;;;;;;;10.87;2.60;;;9.80;1.00;;;;;;6284950;22;20383;-85
2024/01/01 12:24:13;;;;;;;9.60;2.70;;;9.80;1.00;;;;;;6284017;22;20367;-85
2024/01/01 12:26:38;;;;;;;12.47;2.67;;;9.70;1.00;;;;;;6255929;22;20436;-86
2024/01/01 12:29:15;;;;;;;29.20;8.07;;;9.60;1.00;;;;;;6255489;22;20399;-87
2024/01/01 12:31:45;;;;;;;16.40;2.87;;;9.60;1.00;;;;;;6281263;22;20152;-85
2024/01/01 12:34:16;;;;;;;13.67;2.97;;;9.50;3.60;;;;;;6254044;22;20398;-86
2024/01/01 12:36:45;;;;;;;22.23;4.77;;;9.50;81.50;;;;;;6280481;22;20453;-86
2024/01/01 12:39:11;;;;;;;15.83;4.20;;;9.60;99.90;;;;;;6277406;22;20442;-87
2024/01/01 12:41:38;;;;;;;13.87;3.30;;;9.70;19.20;;;;;;6247615;22;20384;-87
2024/01/01 12:44:04;;;;;;;19.20;4.00;;;9.80;1.00;;;;;;6248435;22;20729;-87
2024/01/01 12:46:31;;;;;;;13.40;3.20;;;9.80;1.00;;;;;;6246846;22;20398;-87
2024/01/01 12:48:57;;;;;;;8.00;2.97;;;9.70;1.00;;;;;;6247147;22;20407;-88
2024/01/01 12:51:24;;;;;;;14.93;3.90;;;9.70;1.00;;;;;;6274646;22;20385;-87
2024/01/01 12:53:54;;;;;;;11.00;3.40;;;9.70;1.00;;;;;;6244441;22;20391;-87
2024/01/01 12:56:20;;;;;;;12.10;3.10;;;9.80;1.00;;;;;;6273986;22;20455;-88